Time;durP1;ratioP1;P1;durP2;ratioP2;P2;SDS_P1;SDS_P2;PMS_P1;PMS_P2;Temp;Humidity;BMP_temperature;BMP_pressure;BME280_temperature;BME280_humidity;BME280_pressure;Samples;Min_cycle;Max_cycle;Signal;HPM_P1;HPM_P2
2022/02/21 00:01:54;;;;;;;1.15;1.00;;;;;;;2.27;73.40;97944.47;5128680;27;20055;-40
2022/02/21 00:04:20;;;;;;;3.22;1.67;;;;;;;2.30;73.63;97941.84;5131683;27;20042;-39
2022/02/21 00:06:45;;;;;;;3.33;1.45;;;;;;;2.36;73.47;97952.75;5122427;27;20054;-39
2022/02/21 00:09:13;;;;;;;4.72;1.30;;;;;;;2.45;73.12;97949.09;5131961;27;20039;-40
2022/02/21 00:11:39;;;;;;;3.00;1.38;;;;;;;2.47;72.59;97949.84;5114373;27;20418;-39
2022/02/21 00:14:05;;;;;;;3.90;1.15;;;;;;;2.48;72.71;97949.81;5130450;27;20042;-39
2022/02/21 00:16:31;;;;;;;1.90;1.30;;;;;;;2.47;72.86;97953.25;5131342;27;20043;-40
2022/02/21 00:18:57;;;;;;;2.25;0.95;;;;;;;2.51;72.99;97951.47;5112689;27;20488;-39
2022/02/21 00:21:24;;;;;;;2.70;0.63;;;;;;;2.51;73.13;97952.28;5131524;27;20506;-39
2022/02/21 00:23:49;;;;;;;2.35;1.30;;;;;;;2.40;73.25;97931.28;5112350;27;20039;-39
2022/02/21 00:26:18;;;;;;;6.15;1.58;;;;;;;2.47;72.87;97948.13;5112674;27;20039;-39
2022/02/21 00:28:45;;;;;;;2.88;1.25;;;;;;;2.47;72.80;97952.44;5113052;27;20043;-39
2022/02/21 00:31:12;;;;;;;4.75;1.02;;;;;;;2.40;72.97;97938.13;5113812;27;20039;-39
2022/02/21 00:33:38;;;;;;;4.90;1.20;;;;;;;2.39;73.14;97937.28;5113401;27;20043;-39
2022/02/21 00:36:04;;;;;;;4.18;1.90;;;;;;;2.38;73.04;97929.63;5130376;27;20037;-43
2022/02/21 00:38:30;;;;;;;4.68;1.13;;;;;;;2.39;73.81;97936.44;5131192;27;20126;-39
2022/02/21 00:40:56;;;;;;;3.80;1.40;;;;;;;2.33;74.27;97929.75;5130839;27;20071;-39
2022/02/21 00:43:22;;;;;;;3.25;1.23;;;;;;;2.31;74.77;97938.38;5130382;27;20057;-40
2022/02/21 00:45:47;;;;;;;3.80;1.40;;;;;;;2.27;75.18;97932.50;5130542;27;20566;-40
2022/02/21 00:48:13;;;;;;;4.22;1.60;;;;;;;2.31;75.08;97928.13;5111839;27;20131;-39
2022/02/21 00:50:39;;;;;;;2.28;1.48;;;;;;;2.29;75.39;97928.19;5131161;27;20046;-39
2022/02/21 00:53:05;;;;;;;4.75;1.15;;;;;;;2.23;75.16;97923.22;5131427;27;20039;-39
2022/02/21 00:55:33;;;;;;;5.70;1.70;;;;;;;2.24;75.25;97918.94;5129958;27;20043;-40
2022/02/21 00:57:59;;;;;;;4.32;1.10;;;;;;;2.25;74.99;97920.63;5130422;27;20038;-40
2022/02/21 01:00:25;;;;;;;2.45;1.10;;;;;;;2.11;75.39;97913.31;5130036;27;20035;-40
2022/02/21 01:02:51;;;;;;;7.25;1.90;;;;;;;2.17;75.46;97920.00;5110090;28;20165;-39
2022/02/21 01:05:16;;;;;;;3.95;0.98;;;;;;;2.07;75.58;97899.78;5112276;28;20047;-40
2022/02/21 01:07:42;;;;;;;5.82;1.50;;;;;;;2.16;75.77;97908.91;5112401;28;20046;-38
2022/02/21 01:10:08;;;;;;;8.68;1.30;;;;;;;2.07;75.61;97899.78;5096680;27;20046;-39
2022/02/21 01:12:34;;;;;;;2.65;1.20;;;;;;;2.06;75.57;97904.94;5137640;27;20043;-39
2022/02/21 01:15:00;;;;;;;4.25;1.30;;;;;;;2.06;75.75;97897.25;5137530;27;20064;-40
2022/02/21 01:17:27;;;;;;;4.60;1.48;;;;;;;2.04;75.16;97899.03;5131650;27;20035;-39
2022/02/21 01:19:53;;;;;;;5.10;0.80;;;;;;;2.07;75.30;97901.50;5117834;27;20065;-40
2022/02/21 01:22:19;;;;;;;1.23;0.88;;;;;;;2.06;75.39;97895.53;5136802;27;20129;-39
2022/02/21 01:24:44;;;;;;;1.30;0.73;;;;;;;1.99;75.10;97881.19;5119305;27;20558;-39
2022/02/21 01:27:14;;;;;;;5.32;1.27;;;;;;;2.11;75.02;97885.13;5137018;27;20908;-39
2022/02/21 01:29:40;;;;;;;6.47;1.23;;;;;;;2.13;75.18;97902.16;5136391;27;20058;-40
2022/02/21 01:32:07;;;;;;;2.35;1.10;;;;;;;2.08;74.81;97898.06;5094620;27;20063;-40
2022/02/21 01:34:33;;;;;;;3.05;1.40;;;;;;;2.11;74.53;97885.13;5119396;27;20592;-39
2022/02/21 01:36:59;;;;;;;2.92;1.20;;;;;;;2.13;74.54;97891.06;5136766;27;20133;-39
2022/02/21 01:39:24;;;;;;;2.90;1.08;;;;;;;2.12;74.45;97882.53;5124016;27;20137;-38
2022/02/21 01:41:50;;;;;;;4.07;1.35;;;;;;;2.12;74.15;97879.97;5118452;27;20061;-39
2022/02/21 01:44:16;;;;;;;2.90;1.40;;;;;;;2.16;74.00;97883.28;5137204;27;20130;-40
2022/02/21 01:46:42;;;;;;;8.00;1.50;;;;;;;2.06;74.11;97872.47;5136736;27;20047;-39
2022/02/21 01:49:10;;;;;;;3.88;1.25;;;;;;;2.10;74.55;97881.72;5119160;27;20054;-38
2022/02/21 01:51:38;;;;;;;1.92;1.00;;;;;;;2.13;74.50;97880.81;5105303;27;20039;-39
2022/02/21 01:54:08;;;;;;;4.85;1.90;;;;;;;2.15;73.90;97873.09;5118554;27;20043;-39
2022/02/21 01:56:35;;;;;;;3.53;1.45;;;;;;;2.22;74.03;97893.34;5118214;27;20038;-40
2022/02/21 01:59:01;;;;;;;4.38;1.80;;;;;;;2.21;74.11;97885.69;5118692;27;20043;-40
2022/02/21 02:01:27;;;;;;;2.38;1.00;;;;;;;2.25;73.97;97892.44;5118345;27;20046;-39
2022/02/21 02:03:53;;;;;;;2.10;1.33;;;;;;;2.22;73.64;97884.81;5136208;27;20046;-39
2022/02/21 02:06:19;;;;;;;5.97;1.60;;;;;;;2.20;74.07;97892.53;5137027;27;20095;-40
2022/02/21 02:08:45;;;;;;;5.65;1.13;;;;;;;2.19;73.95;97883.19;5101111;27;20038;-39
2022/02/21 02:11:13;;;;;;;7.05;1.70;;;;;;;2.17;73.75;97889.25;5137068;27;20133;-40
2022/02/21 02:13:39;;;;;;;2.30;1.40;;;;;;;2.09;74.08;97887.72;5136828;27;20035;-40
2022/02/21 02:16:05;;;;;;;2.85;1.35;;;;;;;2.08;74.07;97865.56;5118894;27;20091;-38
2022/02/21 02:18:31;;;;;;;6.25;1.27;;;;;;;2.21;73.87;97880.56;5112566;27;20058;-40
2022/02/21 02:20:57;;;;;;;7.93;1.67;;;;;;;2.20;74.19;97884.84;5136509;27;20030;-40
2022/02/21 02:23:23;;;;;;;4.93;1.73;;;;;;;2.26;73.92;97882.13;5109380;27;20038;-39
2022/02/21 02:25:49;;;;;;;5.10;1.60;;;;;;;2.23;73.40;97871.97;5096045;27;20081;-39
2022/02/21 02:28:14;;;;;;;3.90;1.70;;;;;;;2.22;73.87;97880.53;5133621;27;20047;-38
2022/02/21 02:30:40;;;;;;;4.93;1.73;;;;;;;2.09;73.64;97867.22;5115654;27;20080;-41
2022/02/21 02:33:06;;;;;;;2.70;1.40;;;;;;;2.21;73.49;97878.84;5119893;27;20496;-40
2022/02/21 02:35:32;;;;;;;3.88;1.83;;;;;;;2.21;73.86;97883.97;5114966;27;20121;-39
2022/02/21 02:38:02;;;;;;;5.00;1.50;;;;;;;2.06;73.57;97851.97;5132542;27;20088;-41
2022/02/21 02:40:28;;;;;;;4.30;1.70;;;;;;;2.12;73.98;97899.63;5133586;27;20038;-39
2022/02/21 02:42:54;;;;;;;3.08;1.20;;;;;;;2.05;74.04;97872.50;5124791;27;20046;-40
2022/02/21 02:45:20;;;;;;;3.92;1.33;;;;;;;2.01;74.48;97866.63;5106950;27;20039;-39
2022/02/21 02:47:45;;;;;;;3.10;1.42;;;;;;;2.04;74.20;97866.53;5114629;27;20042;-39
2022/02/21 02:50:11;;;;;;;4.45;1.65;;;;;;;2.04;74.17;97874.22;5114566;27;20146;-40
2022/02/21 02:52:37;;;;;;;6.03;1.52;;;;;;;2.08;74.11;97872.41;5133503;27;20088;-40
2022/02/21 02:55:03;;;;;;;3.55;1.50;;;;;;;2.06;74.02;97863.94;5133542;27;20035;-38
2022/02/21 02:57:29;;;;;;;3.28;1.55;;;;;;;2.00;74.35;97858.97;5113485;27;20031;-38
2022/02/21 02:59:57;;;;;;;5.47;1.83;;;;;;;2.07;74.51;97874.16;5114539;27;20047;-39
2022/02/21 03:02:23;;;;;;;7.10;1.80;;;;;;;2.13;73.99;97876.53;5129507;27;20059;-40
2022/02/21 03:04:49;;;;;;;3.35;1.50;;;;;;;2.16;74.06;97870.47;5133021;27;20031;-40
2022/02/21 03:07:15;;;;;;;4.88;1.73;;;;;;;2.13;74.08;97861.16;5114016;27;20039;-39
2022/02/21 03:09:40;;;;;;;1.02;0.70;;;;;;;2.12;74.29;97856.91;5132704;27;20039;-40
2022/02/21 03:12:07;;;;;;;3.72;1.70;;;;;;;2.12;74.16;97848.38;5132718;27;20425;-38
2022/02/21 03:14:32;;;;;;;4.32;1.83;;;;;;;2.06;74.15;97849.41;5133053;27;20082;-40
2022/02/21 03:16:58;;;;;;;4.45;1.80;;;;;;;2.11;74.19;97854.38;5093640;28;20055;-39
2022/02/21 03:19:25;;;;;;;3.40;1.10;;;;;;;2.20;74.24;97863.53;5090147;28;20043;-39
2022/02/21 03:21:53;;;;;;;4.28;1.75;;;;;;;2.13;74.11;97853.47;5130933;27;20096;-39
2022/02/21 03:24:19;;;;;;;3.92;1.33;;;;;;;2.16;74.08;97861.94;5132633;27;20031;-39
2022/02/21 03:26:44;;;;;;;2.30;1.13;;;;;;;2.00;74.24;97841.88;5113600;27;20537;-40
2022/02/21 03:29:10;;;;;;;5.53;1.33;;;;;;;2.08;74.64;97857.88;5132694;27;20107;-39
2022/02/21 03:31:36;;;;;;;8.05;1.98;;;;;;;2.13;74.40;97850.91;5121085;27;20137;-39
2022/02/21 03:34:01;;;;;;;4.78;1.52;;;;;;;2.16;74.17;97860.22;5131009;27;20042;-40
2022/02/21 03:36:27;;;;;;;3.88;1.45;;;;;;;2.11;74.38;97849.25;5113773;27;20608;-39
2022/02/21 03:38:53;;;;;;;4.40;1.60;;;;;;;2.03;74.04;97826.44;5132306;27;20462;-40
2022/02/21 03:41:18;;;;;;;3.55;1.48;;;;;;;2.12;73.98;97862.03;5113435;27;20414;-39
2022/02/21 03:43:44;;;;;;;3.42;0.90;;;;;;;2.03;74.79;97848.66;5132258;27;20046;-39
2022/02/21 03:46:10;;;;;;;4.55;1.70;;;;;;;2.00;74.98;97854.69;5131189;27;20419;-39
2022/02/21 03:48:35;;;;;;;4.90;1.35;;;;;;;2.05;74.71;97846.88;5132186;27;20533;-39
2022/02/21 03:51:01;;;;;;;5.55;1.98;;;;;;;2.00;75.07;97857.25;5132232;27;20041;-39
2022/02/21 03:53:26;;;;;;;4.35;1.85;;;;;;;2.01;75.09;97853.81;5131025;27;20144;-39
2022/02/21 03:55:55;;;;;;;5.20;1.80;;;;;;;1.93;75.32;97862.63;5131448;27;20042;-39
2022/02/21 03:58:21;;;;;;;6.97;1.92;;;;;;;1.89;76.13;97850.75;5111410;27;20039;-39
2022/02/21 04:00:47;;;;;;;5.90;1.85;;;;;;;1.93;75.99;97853.22;5124378;27;20072;-40
2022/02/21 04:03:13;;;;;;;3.95;1.58;;;;;;;1.89;76.08;97858.44;5131259;27;20059;-39
2022/02/21 04:05:38;;;;;;;4.32;1.85;;;;;;;1.87;76.21;97855.09;5112297;27;20078;-40
2022/02/21 04:08:04;;;;;;;5.32;2.30;;;;;;;1.85;76.20;97851.75;5131758;27;20046;-39
2022/02/21 04:10:30;;;;;;;4.75;1.63;;;;;;;1.81;76.36;97845.88;5131789;27;20594;-40
2022/02/21 04:12:56;;;;;;;5.18;1.98;;;;;;;1.80;76.45;97833.09;5131359;27;20061;-39
2022/02/21 04:15:21;;;;;;;7.30;2.22;;;;;;;1.83;76.31;97846.69;5112793;27;20047;-38
2022/02/21 04:17:49;;;;;;;5.38;2.30;;;;;;;1.89;76.22;97849.03;5123952;27;20586;-41
2022/02/21 04:20:17;;;;;;;5.47;2.10;;;;;;;1.91;76.44;97851.56;5131433;27;20049;-41
2022/02/21 04:22:43;;;;;;;6.75;1.95;;;;;;;1.91;76.29;97849.84;5131310;27;20043;-41
2022/02/21 04:25:10;;;;;;;6.75;2.15;;;;;;;1.86;76.96;97846.59;5113377;27;20134;-41
2022/02/21 04:27:40;;;;;;;10.27;3.08;;;;;;;1.87;77.13;97842.31;5130561;27;20046;-40
2022/02/21 04:30:07;;;;;;;7.53;2.25;;;;;;;1.90;77.16;97845.59;5131374;27;20140;-40
2022/02/21 04:32:35;;;;;;;6.95;1.88;;;;;;;1.90;77.13;97848.16;5112856;27;20103;-40
2022/02/21 04:35:01;;;;;;;7.13;2.30;;;;;;;1.90;77.01;97855.00;5130542;27;20047;-39
2022/02/21 04:37:27;;;;;;;5.00;2.53;;;;;;;1.86;76.80;97859.38;5134747;27;20034;-39
2022/02/21 04:39:53;;;;;;;5.90;2.30;;;;;;;1.88;77.39;97851.66;5130748;27;20039;-40
2022/02/21 04:42:19;;;;;;;6.75;2.08;;;;;;;1.81;78.87;97861.25;5130204;27;20229;-39
2022/02/21 04:44:44;;;;;;;3.75;1.98;;;;;;;1.77;79.51;97854.53;5124672;27;20096;-39
2022/02/21 04:47:10;;;;;;;12.32;3.08;;;;;;;1.80;80.08;97853.59;5128703;27;20039;-40
2022/02/21 04:49:36;;;;;;;7.03;3.35;;;;;;;1.76;80.41;97849.44;5112556;27;20039;-39
2022/02/21 04:52:01;;;;;;;6.60;3.00;;;;;;;1.80;80.47;97858.72;5130081;27;20095;-40
2022/02/21 04:54:27;;;;;;;5.15;2.72;;;;;;;1.78;80.85;97857.94;5137946;27;20115;-40
2022/02/21 04:56:53;;;;;;;9.10;2.30;;;;;;;1.73;81.60;97864.91;5130679;27;20050;-39
2022/02/21 04:59:18;;;;;;;7.15;2.55;;;;;;;1.65;81.86;97857.44;5130180;27;20051;-41
2022/02/21 05:01:44;;;;;;;7.75;2.42;;;;;;;1.68;82.42;97865.03;5130749;27;20054;-40
2022/02/21 05:04:10;;;;;;;8.20;3.60;;;;;;;1.68;82.87;97855.63;5131139;27;20546;-41
2022/02/21 05:06:35;;;;;;;8.80;3.30;;;;;;;1.71;82.90;97859.84;5121426;27;20043;-40
2022/02/21 05:09:01;;;;;;;8.75;2.80;;;;;;;1.68;83.27;97852.22;5129874;27;20125;-40
2022/02/21 05:11:27;;;;;;;5.57;2.70;;;;;;;1.67;83.20;97846.25;5130453;28;20035;-40
2022/02/21 05:13:52;;;;;;;10.65;3.88;;;;;;;1.79;83.17;97852.75;5129706;27;20529;-40
2022/02/21 05:16:18;;;;;;;7.68;3.65;;;;;;;1.77;82.89;97851.97;5134947;27;20051;-45
2022/02/21 05:18:44;;;;;;;6.55;3.15;;;;;;;1.78;83.23;97851.06;5129953;27;20541;-40
2022/02/21 05:21:09;;;;;;;8.45;2.85;;;;;;;1.74;83.27;97841.81;5138269;27;20424;-40
2022/02/21 05:23:35;;;;;;;10.30;3.97;;;;;;;1.88;83.37;97857.63;5138628;27;20049;-40
2022/02/21 05:26:01;;;;;;;11.23;3.50;;;;;;;1.96;83.31;97860.81;5119938;27;20039;-40
2022/02/21 05:28:27;;;;;;;7.20;3.75;;;;;;;1.92;84.15;97855.81;5137988;27;20043;-40
2022/02/21 05:30:54;;;;;;;9.52;2.92;;;;;;;1.82;83.91;97839.03;5138097;27;20130;-41
2022/02/21 05:33:20;;;;;;;6.68;2.72;;;;;;;1.90;84.21;97860.13;5140330;27;20464;-41
2022/02/21 05:35:46;;;;;;;9.50;2.63;;;;;;;1.84;84.61;97865.44;5128961;28;20072;-40
2022/02/21 05:38:12;;;;;;;8.80;4.00;;;;;;;1.82;84.21;97865.50;5131467;27;20123;-40
2022/02/21 05:40:37;;;;;;;3.47;2.17;;;;;;;1.78;84.29;97865.63;5139980;27;20131;-39
2022/02/21 05:43:03;;;;;;;7.05;2.88;;;;;;;1.79;84.47;97869.84;5112208;28;20593;-41
2022/02/21 05:45:29;;;;;;;11.80;3.28;;;;;;;1.79;84.21;97867.28;5138684;27;20049;-39
2022/02/21 05:47:55;;;;;;;7.32;3.35;;;;;;;1.86;84.12;97868.78;5138230;27;20043;-40
2022/02/21 05:50:20;;;;;;;4.45;2.55;;;;;;;1.80;83.82;97874.09;5134334;27;20422;-41
2022/02/21 05:52:46;;;;;;;6.10;3.35;;;;;;;1.81;84.11;97850.16;5132669;27;20067;-40
2022/02/21 05:55:12;;;;;;;7.78;3.63;;;;;;;1.94;83.78;97867.69;5133067;27;20094;-40
2022/02/21 05:57:38;;;;;;;5.45;1.75;;;;;;;1.91;83.54;97861.81;5114041;27;20076;-41
2022/02/21 06:00:06;;;;;;;7.03;2.47;;;;;;;1.92;83.31;97872.03;5144130;27;20041;-40
2022/02/21 06:02:31;;;;;;;6.05;2.85;;;;;;;1.80;83.79;97867.25;5140956;27;20051;-38
2022/02/21 06:04:59;;;;;;;7.25;3.67;;;;;;;1.86;83.88;97874.75;5120268;27;20072;-39
2022/02/21 06:07:25;;;;;;;7.57;3.17;;;;;;;1.99;83.82;97870.13;5142552;27;20043;-40
2022/02/21 06:09:51;;;;;;;7.18;2.38;;;;;;;2.06;83.04;97859.66;5123972;27;20034;-40
2022/02/21 06:12:17;;;;;;;6.82;2.55;;;;;;;1.86;82.64;97849.16;5133704;27;20067;-40
2022/02/21 06:14:43;;;;;;;11.80;4.20;;;;;;;1.95;82.76;97866.81;5136058;27;20165;-39
2022/02/21 06:17:08;;;;;;;8.43;2.78;;;;;;;2.02;82.61;97875.16;5115062;27;20114;-42
2022/02/21 06:19:34;;;;;;;7.90;3.35;;;;;;;2.06;82.33;97867.34;5133906;27;20035;-40
2022/02/21 06:22:02;;;;;;;7.20;3.28;;;;;;;2.08;82.56;97868.13;5115058;27;20046;-40
2022/02/21 06:24:27;;;;;;;2.92;1.98;;;;;;;2.07;82.37;97875.88;5115000;27;20046;-40
2022/02/21 06:26:53;;;;;;;5.63;2.65;;;;;;;2.01;83.18;97873.47;5133312;27;20425;-40
2022/02/21 06:29:20;;;;;;;9.82;3.55;;;;;;;2.00;83.26;97876.91;5114903;27;20051;-39
2022/02/21 06:31:46;;;;;;;11.77;4.20;;;;;;;2.05;83.48;97875.06;5115474;27;20606;-40
2022/02/21 06:34:12;;;;;;;14.43;4.00;;;;;;;2.10;82.92;97868.06;5114914;27;20518;-40
2022/02/21 06:36:38;;;;;;;9.48;3.60;;;;;;;2.15;82.52;97865.41;5133603;27;20056;-40
2022/02/21 06:39:04;;;;;;;5.60;2.33;;;;;;;2.12;82.17;97876.56;5131692;27;20096;-38
2022/02/21 06:41:29;;;;;;;6.50;3.33;;;;;;;2.10;82.90;97870.63;5132830;27;20122;-40
2022/02/21 06:43:56;;;;;;;8.50;3.40;;;;;;;1.94;82.63;97859.16;5105998;27;20043;-40
2022/02/21 06:46:22;;;;;;;8.50;3.78;;;;;;;1.99;82.19;97877.81;5132910;27;20047;-38
2022/02/21 06:48:47;;;;;;;5.47;3.33;;;;;;;2.04;82.00;97873.41;5131891;27;20043;-38
2022/02/21 06:51:13;;;;;;;7.88;2.67;;;;;;;1.95;81.72;97859.13;5131093;27;20042;-39
2022/02/21 06:53:39;;;;;;;5.75;2.83;;;;;;;2.05;81.72;97875.91;5132780;27;20092;-39
2022/02/21 06:56:04;;;;;;;7.97;2.45;;;;;;;2.11;81.22;97872.31;5132954;27;20403;-39
2022/02/21 06:58:30;;;;;;;7.53;3.40;;;;;;;2.08;81.15;97874.97;5132647;27;20043;-40
2022/02/21 07:00:56;;;;;;;5.75;2.50;;;;;;;1.99;80.99;97875.25;5132745;27;20043;-40
2022/02/21 07:03:23;;;;;;;7.93;3.08;;;;;;;2.01;81.11;97871.75;5113790;27;20059;-40
2022/02/21 07:05:48;;;;;;;5.18;2.63;;;;;;;2.09;81.22;97880.03;5114599;27;20045;-40
2022/02/21 07:08:14;;;;;;;5.63;3.17;;;;;;;2.09;81.24;97868.97;5129532;27;20039;-40
2022/02/21 07:10:40;;;;;;;9.95;3.60;;;;;;;2.12;81.20;97874.84;5131911;27;20039;-41
2022/02/21 07:13:06;;;;;;;6.47;2.22;;;;;;;2.13;80.79;97875.69;5132206;27;20514;-41
2022/02/21 07:15:32;;;;;;;6.45;2.65;;;;;;;2.15;80.82;97876.47;5113227;27;20074;-41
2022/02/21 07:17:58;;;;;;;6.30;3.00;;;;;;;2.13;80.99;97875.69;5131383;27;20031;-41
2022/02/21 07:20:25;;;;;;;5.07;2.90;;;;;;;2.14;80.68;97882.50;5132247;27;20391;-41
2022/02/21 07:22:50;;;;;;;7.55;2.63;;;;;;;2.05;81.07;97864.81;5132167;27;20039;-42
2022/02/21 07:25:17;;;;;;;7.45;3.72;;;;;;;2.24;80.36;97890.75;5132220;27;20043;-46
2022/02/21 07:27:49;;;;;;;7.10;3.40;;;;;;;2.23;80.55;97876.25;5135564;27;20077;-40
2022/02/21 07:30:17;;;;;;;5.30;2.85;;;;;;;2.23;80.46;97891.63;5113946;27;20126;-40
2022/02/21 07:32:43;;;;;;;6.25;3.17;;;;;;;2.29;79.88;97871.78;5125486;27;20041;-40
2022/02/21 07:35:09;;;;;;;11.55;3.83;;;;;;;2.46;79.15;97868.72;5130479;27;20038;-45
2022/02/21 07:37:36;;;;;;;3.95;2.30;;;;;;;2.50;78.64;97876.25;5130806;27;20133;-46
2022/02/21 07:40:03;;;;;;;9.13;3.47;;;;;;;2.49;78.64;97884.84;5131139;27;20091;-40
2022/02/21 07:42:29;;;;;;;8.27;3.50;;;;;;;2.38;78.12;97879.19;5129703;27;20039;-40
2022/02/21 07:44:55;;;;;;;5.03;2.90;;;;;;;2.46;78.53;97872.09;5131085;27;20054;-39
2022/02/21 07:47:21;;;;;;;8.60;3.83;;;;;;;2.49;78.31;97878.84;5114939;27;20043;-38
2022/02/21 07:49:48;;;;;;;5.22;2.42;;;;;;;2.53;77.92;97890.69;5109361;27;20038;-38
2022/02/21 07:52:13;;;;;;;3.65;2.50;;;;;;;2.45;77.77;97890.94;5130829;27;20046;-38
2022/02/21 07:54:39;;;;;;;5.22;2.92;;;;;;;2.46;77.85;97886.66;5131428;27;20128;-38
2022/02/21 07:57:06;;;;;;;6.03;2.70;;;;;;;2.52;77.72;97894.97;5131003;27;20087;-37
2022/02/21 07:59:33;;;;;;;8.40;4.88;;;;;;;2.61;78.14;97886.19;5123697;27;20429;-39
2022/02/21 08:01:59;;;;;;;9.13;3.85;;;;;;;2.64;77.53;97872.41;5131178;27;20059;-40
2022/02/21 08:04:25;;;;;;;5.15;2.67;;;;;;;2.76;77.05;97895.94;5131045;27;20091;-39
2022/02/21 08:06:51;;;;;;;6.13;3.50;;;;;;;2.76;76.79;97892.53;5113158;27;20039;-38
2022/02/21 08:09:18;;;;;;;6.47;3.17;;;;;;;2.83;76.69;97891.44;5115905;27;20041;-38
2022/02/21 08:11:43;;;;;;;8.90;3.92;;;;;;;2.94;76.12;97890.22;5112481;27;20180;-38
2022/02/21 08:14:10;;;;;;;6.57;2.65;;;;;;;2.94;75.30;97886.81;5113285;27;20125;-37
2022/02/21 08:16:36;;;;;;;6.30;2.75;;;;;;;2.91;75.14;97892.91;5095834;27;20068;-38
2022/02/21 08:19:02;;;;;;;4.63;2.60;;;;;;;2.86;75.11;97866.53;5131569;27;20539;-37
2022/02/21 08:21:28;;;;;;;6.68;3.15;;;;;;;3.08;74.19;97883.81;5111324;27;20506;-38
2022/02/21 08:23:54;;;;;;;4.45;2.90;;;;;;;3.44;73.52;97884.28;5131298;27;20061;-38
2022/02/21 08:26:19;;;;;;;9.32;3.72;;;;;;;4.19;71.61;97873.78;5131281;27;20063;-39
2022/02/21 08:28:45;;;;;;;6.40;2.80;;;;;;;4.35;69.75;97862.91;5130985;27;20491;-38
2022/02/21 08:31:11;;;;;;;12.40;3.08;;;;;;;4.63;68.36;97876.38;5131081;27;20038;-39
2022/02/21 08:33:37;;;;;;;6.72;2.72;;;;;;;4.43;67.00;97891.75;5131243;27;20041;-38
2022/02/21 08:36:03;;;;;;;7.25;3.22;;;;;;;4.06;68.26;97874.31;5130614;27;20070;-39
2022/02/21 08:38:28;;;;;;;3.65;2.63;;;;;;;3.83;68.15;97881.13;5131118;27;20034;-38
2022/02/21 08:40:54;;;;;;;3.63;1.92;;;;;;;3.69;68.46;97885.94;5130090;27;20047;-38
2022/02/21 08:43:20;;;;;;;5.90;3.00;;;;;;;3.67;69.18;97899.72;5130831;27;20213;-37
2022/02/21 08:45:47;;;;;;;6.03;3.00;;;;;;;3.73;68.72;97884.94;5130818;27;20065;-38
2022/02/21 08:48:13;;;;;;;7.75;3.33;;;;;;;3.70;69.17;97886.78;5130330;27;20043;-38
2022/02/21 08:50:39;;;;;;;3.38;2.15;;;;;;;3.67;68.51;97895.41;5130207;27;20129;-38
2022/02/21 08:53:05;;;;;;;5.88;2.90;;;;;;;3.64;68.64;97887.00;5130404;27;20038;-38
2022/02/21 08:55:30;;;;;;;5.50;2.28;;;;;;;3.55;68.05;97890.72;5112413;27;20046;-38
2022/02/21 08:57:56;;;;;;;8.95;3.53;;;;;;;3.44;68.80;97887.69;5130138;27;20528;-39
2022/02/21 09:00:21;;;;;;;6.47;3.50;;;;;;;3.40;69.02;97876.66;5130216;27;20138;-39
2022/02/21 09:02:47;;;;;;;5.03;2.80;;;;;;;3.46;68.58;97874.78;5130651;27;20434;-38
2022/02/21 09:05:14;;;;;;;6.68;3.25;;;;;;;3.58;68.66;97888.03;5128872;27;20461;-38
2022/02/21 09:07:39;;;;;;;6.15;2.15;;;;;;;3.55;68.41;97905.31;5130207;27;20049;-38
2022/02/21 09:10:06;;;;;;;3.03;2.03;;;;;;;3.46;68.26;97898.72;5129872;28;20031;-38
2022/02/21 09:12:32;;;;;;;4.68;2.70;;;;;;;3.45;68.70;97903.94;5130047;27;20035;-38
2022/02/21 09:15:01;;;;;;;3.55;1.73;;;;;;;3.49;68.27;97908.09;5130441;28;20035;-38
2022/02/21 09:17:29;;;;;;;6.72;2.33;;;;;;;3.48;67.96;97898.69;5130107;28;20150;-39
2022/02/21 09:19:55;;;;;;;5.72;2.00;;;;;;;3.28;67.06;97907.94;5130432;28;20031;-37
2022/02/21 09:22:21;;;;;;;4.13;1.80;;;;;;;3.36;67.60;97911.06;5130385;27;20031;-38
2022/02/21 09:24:47;;;;;;;7.25;2.70;;;;;;;3.41;67.72;97914.31;5130181;28;20428;-38
2022/02/21 09:27:15;;;;;;;5.63;2.20;;;;;;;3.52;67.64;97903.66;5129790;28;20047;-38
2022/02/21 09:29:43;;;;;;;6.07;2.25;;;;;;;3.64;67.13;97920.38;5111682;28;20430;-39
2022/02/21 09:32:08;;;;;;;8.32;2.60;;;;;;;3.54;66.54;97916.47;5114157;27;20134;-37
2022/02/21 09:34:34;;;;;;;3.30;1.90;;;;;;;3.51;66.28;97919.16;5116230;27;20141;-38
2022/02/21 09:37:00;;;;;;;2.28;1.65;;;;;;;3.63;65.40;97911.00;5133672;27;20043;-38
2022/02/21 09:39:26;;;;;;;3.83;1.92;;;;;;;4.42;63.98;97878.06;5134340;27;20501;-39
2022/02/21 09:41:52;;;;;;;2.65;1.27;;;;;;;5.16;59.83;97887.09;5133910;27;20050;-38
2022/02/21 09:44:18;;;;;;;2.72;1.70;;;;;;;5.17;59.44;97895.66;5116330;27;20074;-38
2022/02/21 09:46:47;;;;;;;3.00;1.30;;;;;;;5.85;58.02;97890.16;5133830;27;20067;-38
2022/02/21 09:49:15;;;;;;;7.28;2.03;;;;;;;5.82;57.99;97896.25;5133798;27;20566;-39
2022/02/21 09:51:41;;;;;;;6.10;2.30;;;;;;;5.55;58.51;97887.97;5134555;27;20130;-37
2022/02/21 09:54:07;;;;;;;8.00;2.50;;;;;;;5.50;59.05;97881.34;5115234;27;20059;-38
2022/02/21 09:56:34;;;;;;;3.63;2.25;;;;;;;5.71;59.07;97888.16;5094813;28;20095;-37
2022/02/21 09:58:59;;;;;;;5.38;2.25;;;;;;;5.59;58.33;97877.56;5130828;27;20586;-38
2022/02/21 10:01:25;;;;;;;6.72;1.98;;;;;;;5.39;58.27;97871.50;5133760;27;20097;-37
2022/02/21 10:03:54;;;;;;;4.95;1.60;;;;;;;5.25;58.59;97873.81;5133668;27;20039;-39
2022/02/21 10:06:22;;;;;;;6.00;2.45;;;;;;;5.30;58.23;97879.63;5115200;27;20165;-37
2022/02/21 10:08:51;;;;;;;5.95;2.30;;;;;;;5.27;58.78;97871.19;5115884;27;20035;-38
2022/02/21 10:11:24;;;;;;;;;;;;;;;5.19;58.86;97868.94;5134903;27;20054;-37
2022/02/21 10:14:05;;;;;;;6.90;2.45;;;;;;;5.08;59.26;97871.09;5134653;27;19915;-38
2022/02/21 10:16:49;;;;;;;4.05;2.22;;;;;;;4.94;59.63;97865.69;5133803;27;20046;-38
2022/02/21 10:19:36;;;;;;;7.25;2.05;;;;;;;4.67;59.25;97842.75;5132167;27;20030;-39
2022/02/21 10:22:07;;;;;;;4.60;1.70;;;;;;;4.65;59.61;97860.00;5126563;27;20042;-38
2022/02/21 10:24:44;;;;;;;3.17;2.10;;;;;;;4.70;59.14;97846.94;5115109;27;20448;-38
2022/02/21 10:27:13;;;;;;;3.45;2.10;;;;;;;4.88;58.79;97845.34;5108394;27;20060;-38
2022/02/21 10:29:54;;;;;;;3.58;1.65;;;;;;;4.90;58.59;97835.84;5133732;27;20069;-37
2022/02/21 10:32:23;;;;;;;5.97;2.08;;;;;;;4.84;58.83;97836.91;5133769;27;20043;-37
2022/02/21 10:34:49;;;;;;;4.85;2.10;;;;;;;4.80;59.04;97829.38;5114968;27;20035;-38
2022/02/21 10:38:03;;;;;;;4.75;2.47;;;;;;;4.74;58.81;97829.63;5125991;27;20564;-38
2022/02/21 10:40:37;;;;;;;5.03;2.50;;;;;;;4.74;59.68;97827.91;5118296;27;20055;-37
2022/02/21 10:43:26;;;;;;;5.60;2.75;;;;;;;4.74;59.81;97825.31;5131952;27;20039;-38
2022/02/21 10:45:52;;;;;;;3.70;2.40;;;;;;;4.70;60.28;97828.94;5133581;27;20425;-39
2022/02/21 10:48:21;;;;;;;4.32;2.75;;;;;;;4.79;60.67;97843.16;5132958;27;20053;-38
2022/02/21 10:50:57;;;;;;;6.05;3.28;;;;;;;5.41;59.95;97845.66;5133580;27;20510;-37
2022/02/21 10:53:24;;;;;;;3.95;2.35;;;;;;;6.82;55.65;97844.34;5132506;27;20399;-38
2022/02/21 10:55:51;;;;;;;2.80;2.15;;;;;;;8.36;51.94;97832.03;5133400;27;20043;-38
2022/02/21 10:58:23;;;;;;;5.68;2.38;;;;;;;9.34;48.63;97817.72;5132937;27;20035;-37
2022/02/21 11:00:50;;;;;;;3.28;2.22;;;;;;;10.07;46.25;97836.63;5133345;27;20038;-39
2022/02/21 11:03:20;;;;;;;4.28;2.53;;;;;;;11.01;45.23;97836.66;5132337;27;20051;-38
2022/02/21 11:05:46;;;;;;;4.53;2.70;;;;;;;12.00;43.25;97823.91;5133275;27;20070;-39
2022/02/21 11:08:14;;;;;;;5.03;2.55;;;;;;;12.77;41.52;97812.31;5132467;27;20035;-39
2022/02/21 11:10:47;;;;;;;4.70;2.78;;;;;;;13.25;39.70;97823.50;5125112;27;20050;-38
2022/02/21 11:13:14;;;;;;;4.65;3.22;;;;;;;13.19;39.01;97822.19;5098278;27;20070;-38
2022/02/21 11:15:40;;;;;;;6.05;2.75;;;;;;;12.96;39.67;97828.25;5114355;27;20137;-38
2022/02/21 11:18:09;;;;;;;4.45;2.40;;;;;;;11.70;41.30;97834.66;5132810;27;20027;-37
2022/02/21 11:20:53;;;;;;;4.15;2.42;;;;;;;10.87;42.82;97830.69;5132856;27;20039;-38
2022/02/21 11:23:18;;;;;;;4.43;2.53;;;;;;;10.10;44.01;97818.28;5132988;27;20039;-38
2022/02/21 11:25:50;;;;;;;4.40;2.45;;;;;;;9.81;44.61;97829.59;5114051;27;20042;-39
2022/02/21 11:28:21;;;;;;;5.03;2.63;;;;;;;9.01;45.05;97836.06;5132505;27;20031;-39
2022/02/21 11:30:49;;;;;;;6.20;2.55;;;;;;;8.33;46.51;97833.00;5114055;27;20125;-38
2022/02/21 11:33:18;;;;;;;5.82;2.85;;;;;;;7.62;48.14;97839.44;5114362;27;20387;-38
2022/02/21 11:36:07;;;;;;;4.32;1.80;;;;;;;7.13;49.32;97844.50;5132705;27;20182;-40
2022/02/21 11:38:35;;;;;;;5.25;3.03;;;;;;;6.81;50.72;97846.06;5113711;27;20071;-39
2022/02/21 11:41:07;;;;;;;4.00;1.98;;;;;;;6.50;51.06;97838.13;5114072;27;20054;-38